createdAt,value
2016-07-02T00:00:10.531Z,953.55
2016-07-02T00:01:10.529Z,953.53
2016-07-02T00:02:10.641Z,953.5
2016-07-02T00:03:10.649Z,953.52
2016-07-02T00:04:10.631Z,953.5
2016-07-02T00:05:10.731Z,953.42
2016-07-02T00:06:10.625Z,953.49
2016-07-02T00:07:10.632Z,953.45
2016-07-02T00:08:10.632Z,953.44
2016-07-02T00:09:10.532Z,953.45
2016-07-02T00:10:10.624Z,953.41
2016-07-02T00:11:10.624Z,953.43
2016-07-02T00:12:10.744Z,953.46
2016-07-02T00:13:10.509Z,953.42
2016-07-02T00:14:10.489Z,953.44
2016-07-02T00:15:10.610Z,953.4
2016-07-02T00:16:10.599Z,953.38
2016-07-02T00:17:10.505Z,953.36
2016-07-02T00:18:10.506Z,953.39
2016-07-02T00:19:10.603Z,953.36
2016-07-02T00:20:10.583Z,953.34
2016-07-02T00:21:10.480Z,953.39
2016-07-02T00:22:10.584Z,953.35
2016-07-02T00:23:10.463Z,953.36
2016-07-02T00:24:10.461Z,953.33
2016-07-02T00:25:10.577Z,953.32
2016-07-02T00:26:10.457Z,953.36
2016-07-02T00:27:10.475Z,953.34
2016-07-02T00:28:10.559Z,953.32
2016-07-02T00:29:10.665Z,953.31
2016-07-02T00:30:10.885Z,953.3
2016-07-02T00:31:10.554Z,953.31
2016-07-02T00:32:10.434Z,953.28
2016-07-02T00:33:10.436Z,953.27
2016-07-02T00:34:10.432Z,953.25
2016-07-02T00:35:10.548Z,953.28
2016-07-02T00:36:10.644Z,953.26
2016-07-02T00:37:10.441Z,953.24
2016-07-02T00:38:10.438Z,953.18
2016-07-02T00:39:10.428Z,953.18
2016-07-02T00:40:10.642Z,953.16
2016-07-02T00:41:10.524Z,953.18
2016-07-02T00:42:10.498Z,953.14
2016-07-02T00:43:10.400Z,953.17
2016-07-02T00:44:10.394Z,953.15
2016-07-02T00:45:10.517Z,953.15
2016-07-02T00:46:10.392Z,953.14
2016-07-02T00:47:10.663Z,953.11
2016-07-02T00:48:10.738Z,953.14
2016-07-02T00:49:10.396Z,953.16
2016-07-02T00:50:10.581Z,953.12
2016-07-02T00:51:10.615Z,953.12
2016-07-02T00:52:10.621Z,953.1
2016-07-02T00:53:10.379Z,953.04
2016-07-02T00:54:10.498Z,953.04
2016-07-02T00:55:10.363Z,953.03
2016-07-02T00:56:10.358Z,952.99
2016-07-02T00:57:10.351Z,953.02
2016-07-02T00:58:10.460Z,952.97
2016-07-02T00:59:10.348Z,953
2016-07-02T01:00:10.345Z,953
2016-07-02T01:01:10.363Z,952.99
2016-07-02T01:02:10.445Z,952.99
2016-07-02T01:03:10.345Z,952.91
2016-07-02T01:04:10.464Z,952.91
2016-07-02T01:05:10.532Z,952.95
2016-07-02T01:06:10.342Z,952.89
2016-07-02T01:07:10.433Z,952.92
2016-07-02T01:08:10.315Z,952.91
2016-07-02T01:09:10.319Z,952.89
2016-07-02T01:10:10.429Z,952.88
2016-07-02T01:11:10.303Z,952.84
2016-07-02T01:12:10.299Z,952.8
2016-07-02T01:13:10.413Z,952.81
2016-07-02T01:14:10.291Z,952.81
2016-07-02T01:15:10.290Z,952.81
2016-07-02T01:16:10.288Z,952.79
2016-07-02T01:17:10.315Z,952.79
2016-07-02T01:18:10.399Z,952.78
2016-07-02T01:19:10.735Z,952.74
2016-07-02T01:20:10.407Z,952.76
2016-07-02T01:21:10.409Z,952.77
2016-07-02T01:22:10.381Z,952.76
2016-07-02T01:23:10.391Z,952.73
2016-07-02T01:24:10.394Z,952.74
2016-07-02T01:25:10.280Z,952.69
2016-07-02T01:26:10.575Z,952.71
2016-07-02T01:27:10.463Z,952.69
2016-07-02T01:28:10.247Z,952.71
2016-07-02T01:29:10.244Z,952.69
2016-07-02T01:30:10.451Z,952.66
2016-07-02T01:31:10.349Z,952.62
2016-07-02T01:32:10.365Z,952.68
2016-07-02T01:33:10.350Z,952.62
2016-07-02T01:34:10.234Z,952.61
2016-07-02T01:35:10.225Z,952.61
2016-07-02T01:36:10.223Z,952.57
2016-07-02T01:37:10.219Z,952.58
2016-07-02T01:38:10.215Z,952.52
2016-07-02T01:39:10.458Z,952.49
2016-07-02T01:40:10.236Z,952.48
2016-07-02T01:41:10.420Z,952.44
2016-07-02T01:42:10.419Z,952.42
2016-07-02T01:43:10.325Z,952.42
2016-07-02T01:44:10.202Z,952.36
2016-07-02T01:45:10.198Z,952.34
2016-07-02T01:46:10.206Z,952.38
2016-07-02T01:47:10.190Z,952.35
2016-07-02T01:48:10.288Z,952.38
2016-07-02T01:49:10.184Z,952.33
2016-07-02T01:50:10.195Z,952.37
2016-07-02T01:51:10.311Z,952.31
2016-07-02T01:52:10.380Z,952.32
2016-07-02T01:53:10.176Z,952.27
2016-07-02T01:54:10.286Z,952.25
2016-07-02T01:55:10.191Z,952.26
2016-07-02T01:56:10.361Z,952.26
2016-07-02T01:57:10.160Z,952.28
2016-07-02T01:58:10.157Z,952.29
2016-07-02T01:59:10.384Z,952.31
2016-07-02T02:00:10.168Z,952.3
2016-07-02T02:01:10.151Z,952.2
2016-07-02T02:02:10.265Z,952.23
2016-07-02T02:03:10.256Z,952.21
2016-07-02T02:04:10.252Z,952.22
2016-07-02T02:05:10.158Z,952.17
2016-07-02T02:06:10.246Z,952.13
2016-07-02T02:07:10.352Z,952.14
2016-07-02T02:08:10.239Z,952.17
2016-07-02T02:09:10.604Z,952.16
2016-07-02T02:10:10.134Z,952.13
2016-07-02T02:11:10.117Z,952.18
2016-07-02T02:12:10.236Z,952.12
2016-07-02T02:13:10.224Z,952.12
2016-07-02T02:14:10.156Z,952.12
2016-07-02T02:15:10.111Z,952.14
2016-07-02T02:16:10.105Z,952.15
2016-07-02T02:17:10.106Z,952.15
2016-07-02T02:18:10.099Z,952.13
2016-07-02T02:19:10.215Z,952.13
2016-07-02T02:20:10.300Z,952.16
2016-07-02T02:21:10.509Z,952.23
2016-07-02T02:22:10.392Z,952.23
2016-07-02T02:23:10.445Z,952.22
2016-07-02T02:24:10.104Z,952.2
2016-07-02T02:25:10.477Z,952.24
2016-07-02T02:26:10.481Z,952.23
2016-07-02T02:27:10.480Z,952.24
2016-07-02T02:28:10.300Z,952.25
2016-07-02T02:29:10.292Z,952.23
2016-07-02T02:30:10.469Z,952.23
2016-07-02T02:31:10.476Z,952.24
2016-07-02T02:32:10.465Z,952.19
2016-07-02T02:33:10.479Z,952.2
2016-07-02T02:34:10.267Z,952.26
2016-07-02T02:35:10.473Z,952.26
2016-07-02T02:36:10.081Z,952.26
2016-07-02T02:37:10.191Z,952.22
2016-07-02T02:38:10.257Z,952.25
2016-07-02T02:39:10.286Z,952.26
2016-07-02T02:40:10.341Z,952.24
2016-07-02T02:41:10.451Z,952.27
2016-07-02T02:42:10.065Z,952.22
2016-07-02T02:43:10.343Z,952.18
2016-07-02T02:44:10.054Z,952.15
2016-07-02T02:45:10.165Z,952.16
2016-07-02T02:46:10.332Z,952.14
2016-07-02T02:47:10.046Z,952.13
2016-07-02T02:48:10.058Z,952.13
2016-07-02T02:49:10.257Z,952.13
2016-07-02T02:50:10.132Z,952.12
2016-07-02T02:51:10.032Z,952.06
2016-07-02T02:52:10.116Z,952.09
2016-07-02T02:53:10.101Z,952.15
2016-07-02T02:54:10.024Z,952.07
2016-07-02T02:55:10.409Z,952.02
2016-07-02T02:56:10.020Z,952.02
2016-07-02T02:57:10.144Z,952.05
2016-07-02T02:58:10.411Z,952.09
2016-07-02T02:59:10.308Z,952.03
2016-07-02T03:00:10.031Z,952.05
2016-07-02T03:01:10.211Z,952.05
2016-07-02T03:02:10.014Z,951.99
2016-07-02T03:03:10.002Z,952.05
2016-07-02T03:04:10.001Z,952.05
2016-07-02T03:05:09.998Z,952.06
2016-07-02T03:06:09.993Z,952.05
2016-07-02T03:07:09.996Z,952.02
2016-07-02T03:08:10.026Z,952.04
2016-07-02T03:09:09.987Z,952
2016-07-02T03:10:10.025Z,951.99
2016-07-02T03:11:09.983Z,951.96
2016-07-02T03:12:09.982Z,951.92
2016-07-02T03:13:10.088Z,951.94
2016-07-02T03:14:10.110Z,951.93
2016-07-02T03:15:10.088Z,951.85
2016-07-02T03:16:10.177Z,951.86
2016-07-02T03:17:10.095Z,951.88
2016-07-02T03:18:09.980Z,951.9
2016-07-02T03:19:10.094Z,951.89
2016-07-02T03:20:09.964Z,951.89
2016-07-02T03:21:09.962Z,951.82
2016-07-02T03:22:10.062Z,951.89
2016-07-02T03:23:10.090Z,951.89
2016-07-02T03:24:10.190Z,951.85
2016-07-02T03:25:10.054Z,951.87
2016-07-02T03:26:09.958Z,951.9
2016-07-02T03:27:09.952Z,951.86
2016-07-02T03:28:09.946Z,951.93
2016-07-02T03:29:10.027Z,951.92
2016-07-02T03:30:10.077Z,951.92
2016-07-02T03:31:10.058Z,951.95
2016-07-02T03:32:10.160Z,951.96
2016-07-02T03:33:10.155Z,951.9
2016-07-02T03:34:09.949Z,951.9
2016-07-02T03:35:09.939Z,951.92
2016-07-02T03:36:10.131Z,951.87
2016-07-02T03:37:10.325Z,951.86
2016-07-02T03:38:09.954Z,951.83
2016-07-02T03:39:09.942Z,951.83
2016-07-02T03:40:10.048Z,951.85
2016-07-02T03:41:09.920Z,951.82
2016-07-02T03:42:09.917Z,951.79
2016-07-02T03:43:09.916Z,951.83
2016-07-02T03:44:10.026Z,951.79
2016-07-02T03:45:10.031Z,951.8
2016-07-02T03:46:10.031Z,951.74
2016-07-02T03:47:09.918Z,951.76
2016-07-02T03:48:09.905Z,951.76
2016-07-02T03:49:09.902Z,951.74
2016-07-02T03:50:10.016Z,951.77
2016-07-02T03:51:10.021Z,951.76
2016-07-02T03:52:09.907Z,951.79
2016-07-02T03:53:09.915Z,951.76
2016-07-02T03:54:10.149Z,951.74
2016-07-02T03:55:10.115Z,951.76
2016-07-02T03:56:10.005Z,951.7
2016-07-02T03:57:09.994Z,951.68
2016-07-02T03:58:09.892Z,951.69
2016-07-02T03:59:09.883Z,951.62
2016-07-02T04:00:09.883Z,951.65
2016-07-02T04:01:09.996Z,951.62
2016-07-02T04:02:09.918Z,951.6
2016-07-02T04:03:10.018Z,951.6
2016-07-02T04:04:09.988Z,951.64
2016-07-02T04:05:09.876Z,951.62
2016-07-02T04:06:09.872Z,951.59
2016-07-02T04:07:09.867Z,951.58
2016-07-02T04:08:09.865Z,951.61
2016-07-02T04:09:09.863Z,951.62
2016-07-02T04:10:10.072Z,951.64
2016-07-02T04:11:09.860Z,951.6
2016-07-02T04:12:09.862Z,951.65
2016-07-02T04:13:09.857Z,951.58
2016-07-02T04:14:09.856Z,951.61
2016-07-02T04:15:09.951Z,951.6
2016-07-02T04:16:09.947Z,951.6
2016-07-02T04:17:09.854Z,951.62
2016-07-02T04:18:10.090Z,951.62
2016-07-02T04:19:09.961Z,951.59
2016-07-02T04:20:09.866Z,951.62
2016-07-02T04:21:09.969Z,951.62
2016-07-02T04:22:09.968Z,951.62
2016-07-02T04:23:09.839Z,951.67
2016-07-02T04:24:09.848Z,951.68
2016-07-02T04:25:09.835Z,951.65
2016-07-02T04:26:09.941Z,951.66
2016-07-02T04:27:09.963Z,951.65
2016-07-02T04:28:09.842Z,951.59
2016-07-02T04:29:09.836Z,951.6
2016-07-02T04:30:09.926Z,951.62
2016-07-02T04:31:09.947Z,951.54
2016-07-02T04:32:09.940Z,951.51
2016-07-02T04:33:09.837Z,951.59
2016-07-02T04:34:09.953Z,951.62
2016-07-02T04:35:09.820Z,951.63
2016-07-02T04:36:09.818Z,951.61
2016-07-02T04:37:09.816Z,951.6
2016-07-02T04:38:09.815Z,951.65
2016-07-02T04:39:09.910Z,951.64
2016-07-02T04:40:09.825Z,951.64
2016-07-02T04:41:10.057Z,951.72
2016-07-02T04:42:09.932Z,951.7
2016-07-02T04:43:09.886Z,951.8
2016-07-02T04:44:09.804Z,951.82
2016-07-02T04:45:09.810Z,951.83
2016-07-02T04:46:09.930Z,951.86
2016-07-02T04:47:09.934Z,951.84
2016-07-02T04:48:09.801Z,951.86
2016-07-02T04:49:09.796Z,951.87
2016-07-02T04:50:09.895Z,951.88
2016-07-02T04:51:10.016Z,951.86
2016-07-02T04:52:09.814Z,951.82
2016-07-02T04:53:09.911Z,951.81
2016-07-02T04:54:09.902Z,951.82
2016-07-02T04:55:09.909Z,951.87
2016-07-02T04:56:09.787Z,951.8
2016-07-02T04:57:09.904Z,951.82
2016-07-02T04:58:09.786Z,951.81
2016-07-02T04:59:09.891Z,951.82
2016-07-02T05:00:09.883Z,951.8
2016-07-02T05:01:09.779Z,951.83
2016-07-02T05:02:09.778Z,951.77
2016-07-02T05:03:09.867Z,951.74
2016-07-02T05:04:09.888Z,951.72
2016-07-02T05:05:09.875Z,951.7
2016-07-02T05:06:09.785Z,951.67
2016-07-02T05:07:09.785Z,951.74
2016-07-02T05:08:09.880Z,951.8
2016-07-02T05:09:09.767Z,951.85
2016-07-02T05:10:09.764Z,951.88
2016-07-02T05:11:09.767Z,951.82
2016-07-02T05:12:09.762Z,951.83
2016-07-02T05:13:09.962Z,951.81
2016-07-02T05:14:09.782Z,951.8
2016-07-02T05:15:09.774Z,951.79
2016-07-02T05:16:09.994Z,951.8
2016-07-02T05:17:09.777Z,951.82
2016-07-02T05:18:09.759Z,951.84
2016-07-02T05:19:09.753Z,951.83
2016-07-02T05:20:09.874Z,951.82
2016-07-02T05:21:09.751Z,951.81
2016-07-02T05:22:09.755Z,951.78
2016-07-02T05:23:09.933Z,951.8
2016-07-02T05:24:09.890Z,951.8
2016-07-02T05:25:09.872Z,951.79
2016-07-02T05:26:09.858Z,951.83
2016-07-02T05:27:09.891Z,951.78
2016-07-02T05:28:09.871Z,951.86
2016-07-02T05:29:09.994Z,951.8
2016-07-02T05:30:09.855Z,951.8
2016-07-02T05:31:09.854Z,951.82
2016-07-02T05:32:10.152Z,951.76
2016-07-02T05:33:09.875Z,951.8
2016-07-02T05:34:09.876Z,951.77
2016-07-02T05:35:09.854Z,951.82
2016-07-02T05:36:09.855Z,951.82
2016-07-02T05:37:09.835Z,951.83
2016-07-02T05:38:09.733Z,951.88
2016-07-02T05:39:09.841Z,951.83
2016-07-02T05:40:09.744Z,951.76
2016-07-02T05:41:09.983Z,951.83
2016-07-02T05:42:09.839Z,951.78
2016-07-02T05:43:09.837Z,951.75
2016-07-02T05:44:09.739Z,951.76
2016-07-02T05:45:09.728Z,951.73
2016-07-02T05:46:09.726Z,951.7
2016-07-02T05:47:09.731Z,951.74
2016-07-02T05:48:09.725Z,951.58
2016-07-02T05:49:09.726Z,951.62
2016-07-02T05:50:09.726Z,951.58
2016-07-02T05:51:09.861Z,951.49
2016-07-02T05:52:09.862Z,951.5
2016-07-02T05:53:10.753Z,951.51
2016-07-02T05:54:09.931Z,951.51
2016-07-02T05:55:09.969Z,951.5
2016-07-02T05:56:09.925Z,951.52
2016-07-02T05:57:09.861Z,951.46
2016-07-02T05:58:09.921Z,951.54
2016-07-02T05:59:09.836Z,951.58
2016-07-02T06:00:09.940Z,951.6
2016-07-02T06:01:09.855Z,951.62
2016-07-02T06:02:09.725Z,951.6
2016-07-02T06:03:09.725Z,951.64
2016-07-02T06:04:09.735Z,951.6
2016-07-02T06:05:09.837Z,951.63
2016-07-02T06:06:09.843Z,951.59
2016-07-02T06:07:09.976Z,951.58
2016-07-02T06:08:09.935Z,951.55
2016-07-02T06:09:09.839Z,951.59
2016-07-02T06:10:09.728Z,951.63
2016-07-02T06:11:09.732Z,951.63
2016-07-02T06:12:09.842Z,951.62
2016-07-02T06:13:09.841Z,951.66
2016-07-02T06:14:09.846Z,951.69
2016-07-02T06:15:09.867Z,951.65
2016-07-02T06:16:09.841Z,951.68
2016-07-02T06:17:09.853Z,951.69
2016-07-02T06:18:09.853Z,951.73
2016-07-02T06:19:09.846Z,951.7
2016-07-02T06:20:09.851Z,951.71
2016-07-02T06:21:09.857Z,951.69
2016-07-02T06:22:09.841Z,951.71
2016-07-02T06:23:09.740Z,951.67
2016-07-02T06:24:09.740Z,951.7
2016-07-02T06:25:09.739Z,951.66
2016-07-02T06:26:09.858Z,951.75
2016-07-02T06:27:09.745Z,951.7
2016-07-02T06:28:09.860Z,951.66
2016-07-02T06:29:09.757Z,951.7
2016-07-02T06:30:09.746Z,951.68
2016-07-02T06:31:09.745Z,951.69
2016-07-02T06:32:09.755Z,951.66
2016-07-02T06:33:09.857Z,951.65
2016-07-02T06:34:09.761Z,951.67
2016-07-02T06:35:09.765Z,951.64
2016-07-02T06:36:09.762Z,951.67
2016-07-02T06:37:09.958Z,951.67
2016-07-02T06:38:09.767Z,951.71
2016-07-02T06:39:09.770Z,951.76
2016-07-02T06:40:09.782Z,951.73
2016-07-02T06:41:09.797Z,951.71
2016-07-02T06:42:09.791Z,951.73
2016-07-02T06:43:09.873Z,951.8
2016-07-02T06:44:09.903Z,951.79
2016-07-02T06:45:09.770Z,951.75
2016-07-02T06:46:09.977Z,951.74
2016-07-02T06:47:09.903Z,951.73
2016-07-02T06:48:09.789Z,951.72
2016-07-02T06:49:09.953Z,951.63
2016-07-02T06:50:09.781Z,951.64
2016-07-02T06:51:09.782Z,951.61
2016-07-02T06:52:09.782Z,951.67
2016-07-02T06:53:09.781Z,951.75
2016-07-02T06:54:09.782Z,951.75
2016-07-02T06:55:09.997Z,951.78
2016-07-02T06:56:09.808Z,951.83
2016-07-02T06:57:09.794Z,951.8
2016-07-02T06:58:09.789Z,951.82
2016-07-02T06:59:09.791Z,951.83
2016-07-02T07:00:09.791Z,951.84
2016-07-02T07:01:09.793Z,951.82
2016-07-02T07:02:09.861Z,951.8
2016-07-02T07:03:09.805Z,951.87
2016-07-02T07:04:09.994Z,951.85
2016-07-02T07:05:09.925Z,951.81
2016-07-02T07:06:09.925Z,951.8
2016-07-02T07:07:09.834Z,951.74
2016-07-02T07:08:09.819Z,951.76
2016-07-02T07:09:09.818Z,951.72
2016-07-02T07:10:09.832Z,951.74
2016-07-02T07:11:09.841Z,951.69
2016-07-02T07:12:09.946Z,951.69
2016-07-02T07:13:09.819Z,951.71
2016-07-02T07:14:09.825Z,951.69
2016-07-02T07:15:09.827Z,951.63
2016-07-02T07:16:09.832Z,951.73
2016-07-02T07:17:09.912Z,951.68
2016-07-02T07:18:09.892Z,951.73
2016-07-02T07:19:09.857Z,951.8
2016-07-02T07:20:09.866Z,951.8
2016-07-02T07:21:09.855Z,951.81
2016-07-02T07:22:09.862Z,951.83
2016-07-02T07:23:10.105Z,951.87
2016-07-02T07:24:09.962Z,951.78
2016-07-02T07:25:10.007Z,951.75
2016-07-02T07:26:09.991Z,951.81
2016-07-02T07:27:09.999Z,951.85
2016-07-02T07:28:09.890Z,951.91
2016-07-02T07:29:09.890Z,951.94
2016-07-02T07:30:10.073Z,951.91
2016-07-02T07:31:09.918Z,951.96
2016-07-02T07:32:10.037Z,952.05
2016-07-02T07:33:10.043Z,952.1
2016-07-02T07:34:10.030Z,952.09
2016-07-02T07:35:10.056Z,952.06
2016-07-02T07:36:09.935Z,952.01
2016-07-02T07:37:10.053Z,952.07
2016-07-02T07:38:10.087Z,952.05
2016-07-02T07:39:10.113Z,952.01
2016-07-02T07:40:09.954Z,952.02
2016-07-02T07:41:09.956Z,952.04
2016-07-02T07:42:10.089Z,952.13
2016-07-02T07:43:10.171Z,952.17
2016-07-02T07:44:10.110Z,952.09
2016-07-02T07:45:09.990Z,952.13
2016-07-02T07:46:10.105Z,952.18
2016-07-02T07:47:10.028Z,952.25
2016-07-02T07:48:10.124Z,952.2
2016-07-02T07:49:10.012Z,952.23
2016-07-02T07:50:10.042Z,952.3
2016-07-02T07:51:10.142Z,952.34
2016-07-02T07:52:10.032Z,952.37
2016-07-02T07:53:10.032Z,952.34
2016-07-02T07:54:10.033Z,952.35
2016-07-02T07:55:10.036Z,952.45
2016-07-02T07:56:10.068Z,952.52
2016-07-02T07:57:10.045Z,952.55
2016-07-02T07:58:10.051Z,952.6
2016-07-02T07:59:10.050Z,952.62
2016-07-02T08:00:10.056Z,952.58
2016-07-02T08:01:10.461Z,952.73
2016-07-02T08:02:10.290Z,952.71
2016-07-02T08:03:10.296Z,952.74
2016-07-02T08:04:10.070Z,952.74
2016-07-02T08:05:10.072Z,952.74
2016-07-02T08:06:10.470Z,952.78
2016-07-02T08:07:10.371Z,952.81
2016-07-02T08:08:10.091Z,952.82
2016-07-02T08:09:10.091Z,952.8
2016-07-02T08:10:10.091Z,952.78
2016-07-02T08:11:10.088Z,952.83
2016-07-02T08:12:10.092Z,952.78
2016-07-02T08:13:10.228Z,952.82
2016-07-02T08:14:10.525Z,952.77
2016-07-02T08:15:10.492Z,952.8
2016-07-02T08:16:10.123Z,952.74
2016-07-02T08:17:10.403Z,952.74
2016-07-02T08:18:10.105Z,952.75
2016-07-02T08:19:10.106Z,952.74
2016-07-02T08:20:10.222Z,952.72
2016-07-02T08:21:10.218Z,952.73
2016-07-02T08:22:10.247Z,952.71
2016-07-02T08:23:10.226Z,952.7
2016-07-02T08:24:10.229Z,952.68
2016-07-02T08:25:10.351Z,952.67
2016-07-02T08:26:10.189Z,952.61
2016-07-02T08:27:10.184Z,952.6
2016-07-02T08:28:10.133Z,952.6
2016-07-02T08:29:10.234Z,952.54
2016-07-02T08:30:10.171Z,952.55
2016-07-02T08:31:10.235Z,952.58
2016-07-02T08:32:10.156Z,952.61
2016-07-02T08:33:10.242Z,952.66
2016-07-02T08:34:10.263Z,952.68
2016-07-02T08:35:10.258Z,952.72
2016-07-02T08:36:10.135Z,952.67
2016-07-02T08:37:10.135Z,952.68
2016-07-02T08:38:10.265Z,952.65
2016-07-02T08:39:10.256Z,952.66
2016-07-02T08:40:10.338Z,952.67
2016-07-02T08:41:10.260Z,952.61
2016-07-02T08:42:10.376Z,952.6
2016-07-02T08:43:10.148Z,952.58
2016-07-02T08:44:10.151Z,952.62
2016-07-02T08:45:10.149Z,952.61
2016-07-02T08:46:10.161Z,952.59
2016-07-02T08:47:10.158Z,952.55
2016-07-02T08:48:10.157Z,952.52
2016-07-02T08:49:10.167Z,952.58
2016-07-02T08:50:10.299Z,952.57
2016-07-02T08:51:10.300Z,952.63
2016-07-02T08:52:10.291Z,952.6
2016-07-02T08:53:10.184Z,952.64
2016-07-02T08:54:10.245Z,952.63
2016-07-02T08:55:10.184Z,952.63
2016-07-02T08:56:10.164Z,952.66
2016-07-02T08:57:10.167Z,952.63
2016-07-02T08:58:10.278Z,952.62
2016-07-02T08:59:10.179Z,952.66
2016-07-02T09:00:10.367Z,952.64
2016-07-02T09:01:10.178Z,952.67
2016-07-02T09:02:11.012Z,952.68
2016-07-02T09:03:10.292Z,952.7
2016-07-02T09:04:10.195Z,952.69
2016-07-02T09:05:10.194Z,952.63
2016-07-02T09:06:10.296Z,952.67
2016-07-02T09:07:10.329Z,952.73
2016-07-02T09:08:10.306Z,952.67
2016-07-02T09:09:10.207Z,952.74
2016-07-02T09:10:10.400Z,952.73
2016-07-02T09:11:10.295Z,952.7
2016-07-02T09:12:10.204Z,952.66
2016-07-02T09:13:10.302Z,952.73
2016-07-02T09:14:10.269Z,952.74
2016-07-02T09:15:10.403Z,952.79
2016-07-02T09:16:10.193Z,952.82
2016-07-02T09:17:10.303Z,952.77
2016-07-02T09:18:10.306Z,952.77
2016-07-02T09:19:10.196Z,952.79
2016-07-02T09:20:10.299Z,952.8
2016-07-02T09:21:10.227Z,952.84
2016-07-02T09:22:10.201Z,952.84
2016-07-02T09:23:10.198Z,952.83
2016-07-02T09:24:10.200Z,952.8
2016-07-02T09:25:10.201Z,952.82
2016-07-02T09:26:10.307Z,952.84
2016-07-02T09:27:10.333Z,952.84
2016-07-02T09:28:10.316Z,952.87
2016-07-02T09:29:10.213Z,952.85
2016-07-02T09:30:10.317Z,952.92
2016-07-02T09:31:10.202Z,952.92
2016-07-02T09:32:10.223Z,952.91
2016-07-02T09:33:10.211Z,952.9
2016-07-02T09:34:10.215Z,952.86
2016-07-02T09:35:10.204Z,952.81
2016-07-02T09:36:10.205Z,952.81
2016-07-02T09:37:10.207Z,952.78
2016-07-02T09:38:10.215Z,952.84
2016-07-02T09:39:10.210Z,952.79
2016-07-02T09:40:10.206Z,952.91
2016-07-02T09:41:10.216Z,952.96
2016-07-02T09:42:10.215Z,952.93
2016-07-02T09:43:10.220Z,952.94
2016-07-02T09:44:10.230Z,952.82
2016-07-02T09:45:10.434Z,952.89
2016-07-02T09:46:10.331Z,952.88
2016-07-02T09:47:10.222Z,952.89
2016-07-02T09:48:10.230Z,952.88
2016-07-02T09:49:10.230Z,952.86
2016-07-02T09:50:10.334Z,952.89
2016-07-02T09:51:10.348Z,952.91
2016-07-02T09:52:10.325Z,952.87
2016-07-02T09:53:10.230Z,952.86
2016-07-02T09:54:10.233Z,952.83
2016-07-02T09:55:10.245Z,952.81
2016-07-02T09:56:10.239Z,952.84
2016-07-02T09:57:10.339Z,952.86
2016-07-02T09:58:10.326Z,952.91
2016-07-02T09:59:10.219Z,952.92
2016-07-02T10:00:10.305Z,952.92
2016-07-02T10:01:10.340Z,952.95
2016-07-02T10:02:10.228Z,952.98
2016-07-02T10:03:10.222Z,953.03
2016-07-02T10:04:10.225Z,952.98
2016-07-02T10:05:10.226Z,953.03
2016-07-02T10:06:10.241Z,953.06
2016-07-02T10:07:10.343Z,953.05
2016-07-02T10:08:10.246Z,953.04
2016-07-02T10:09:10.231Z,953.1
2016-07-02T10:10:10.238Z,953.09
2016-07-02T10:11:10.350Z,953.05
2016-07-02T10:12:10.241Z,953.04
2016-07-02T10:13:10.233Z,953.07
2016-07-02T10:14:10.246Z,953.11
2016-07-02T10:15:10.432Z,953.1
2016-07-02T10:16:10.368Z,953.11
2016-07-02T10:17:10.337Z,953.17
2016-07-02T10:18:10.234Z,953.15
2016-07-02T10:19:10.343Z,953.13
2016-07-02T10:20:10.247Z,953.09
2016-07-02T10:21:10.350Z,953.17
2016-07-02T10:22:10.357Z,953.21
2016-07-02T10:23:10.252Z,953.17
2016-07-02T10:24:10.448Z,953.11
2016-07-02T10:25:10.459Z,953.15
2016-07-02T10:26:10.249Z,953.14
2016-07-02T10:27:10.363Z,953.13
2016-07-02T10:28:10.252Z,953.14
2016-07-02T10:29:10.237Z,953.17
2016-07-02T10:30:10.238Z,953.16
2016-07-02T10:31:10.337Z,953.14
2016-07-02T10:32:10.344Z,953.12
2016-07-02T10:33:10.237Z,953.06
2016-07-02T10:34:10.240Z,953.04
2016-07-02T10:35:10.479Z,953.03
2016-07-02T10:36:10.357Z,953.02
2016-07-02T10:37:10.243Z,953.04
2016-07-02T10:38:10.255Z,953.01
2016-07-02T10:39:10.239Z,953.01
2016-07-02T10:40:10.252Z,953.04
2016-07-02T10:41:10.253Z,953.03
2016-07-02T10:42:10.371Z,953
2016-07-02T10:43:10.385Z,953
2016-07-02T10:44:10.373Z,952.95
2016-07-02T10:45:10.336Z,952.96
2016-07-02T10:46:10.350Z,952.96
2016-07-02T10:47:10.354Z,952.87
2016-07-02T10:48:10.353Z,952.88
2016-07-02T10:49:10.361Z,952.82
2016-07-02T10:50:10.365Z,952.79
2016-07-02T10:51:10.369Z,952.72
2016-07-02T10:52:10.263Z,952.67
2016-07-02T10:53:10.355Z,952.68
2016-07-02T10:54:10.252Z,952.67
2016-07-02T10:55:10.389Z,952.69
2016-07-02T10:56:10.284Z,952.71
2016-07-02T10:57:10.373Z,952.71
2016-07-02T10:58:10.269Z,952.77
2016-07-02T10:59:10.276Z,952.75
2016-07-02T11:00:10.348Z,952.8
2016-07-02T11:01:10.259Z,952.81
2016-07-02T11:02:10.344Z,952.81
2016-07-02T11:03:10.243Z,952.75
2016-07-02T11:04:10.367Z,952.73
2016-07-02T11:05:10.367Z,952.72
2016-07-02T11:06:10.355Z,952.74
2016-07-02T11:07:10.384Z,952.75
2016-07-02T11:08:10.468Z,952.77
2016-07-02T11:09:10.368Z,952.73
2016-07-02T11:10:10.362Z,952.7
2016-07-02T11:11:10.370Z,952.72
2016-07-02T11:12:10.365Z,952.69
2016-07-02T11:13:10.387Z,952.77
2016-07-02T11:14:10.271Z,952.68
2016-07-02T11:15:10.249Z,952.65
2016-07-02T11:16:10.275Z,952.62
2016-07-02T11:17:10.393Z,952.53
2016-07-02T11:18:10.463Z,952.56
2016-07-02T11:19:10.489Z,952.51
2016-07-02T11:20:10.263Z,952.54
2016-07-02T11:21:10.266Z,952.44
2016-07-02T11:22:10.383Z,952.45
2016-07-02T11:23:10.388Z,952.51
2016-07-02T11:24:10.289Z,952.5
2016-07-02T11:25:10.276Z,952.59
2016-07-02T11:26:10.274Z,952.55
2016-07-02T11:27:10.393Z,952.62
2016-07-02T11:28:10.294Z,952.63
2016-07-02T11:29:10.400Z,952.68
2016-07-02T11:30:10.302Z,952.62
2016-07-02T11:31:10.401Z,952.61
2016-07-02T11:32:10.293Z,952.62
2016-07-02T11:33:10.293Z,952.62
2016-07-02T11:34:10.295Z,952.61
2016-07-02T11:35:10.299Z,952.66
2016-07-02T11:36:10.347Z,952.56
2016-07-02T11:37:10.425Z,952.57
2016-07-02T11:38:10.309Z,952.48
2016-07-02T11:39:10.536Z,952.61
2016-07-02T11:40:10.317Z,952.59
2016-07-02T11:41:10.421Z,952.63
2016-07-02T11:42:10.620Z,952.65
2016-07-02T11:43:10.434Z,952.54
2016-07-02T11:44:10.332Z,952.64
2016-07-02T11:45:10.447Z,952.61
2016-07-02T11:46:10.454Z,952.64
2016-07-02T11:47:10.326Z,952.61
2016-07-02T11:48:10.334Z,952.59
2016-07-02T11:49:10.450Z,952.59
2016-07-02T11:50:10.356Z,952.63
2016-07-02T11:51:10.345Z,952.69
2016-07-02T11:52:10.434Z,952.76
2016-07-02T11:53:10.357Z,952.72
2016-07-02T11:54:10.755Z,952.72
2016-07-02T11:55:10.359Z,952.67
2016-07-02T11:56:10.465Z,952.76
2016-07-02T11:57:10.375Z,952.73
2016-07-02T11:58:10.467Z,952.8
2016-07-02T11:59:10.472Z,952.8
2016-07-02T12:00:10.494Z,952.81
2016-07-02T12:01:10.362Z,952.89
2016-07-02T12:02:10.382Z,952.83
2016-07-02T12:03:10.493Z,952.82
2016-07-02T12:04:10.397Z,952.81
2016-07-02T12:05:10.583Z,952.75
2016-07-02T12:06:10.383Z,952.8
2016-07-02T12:07:10.374Z,952.88
2016-07-02T12:08:10.376Z,952.78
2016-07-02T12:09:10.484Z,952.85
2016-07-02T12:10:10.503Z,952.88
2016-07-02T12:11:10.507Z,952.89
2016-07-02T12:12:10.382Z,952.87
2016-07-02T12:13:10.428Z,952.86
2016-07-02T12:14:10.390Z,952.89
2016-07-02T12:15:10.391Z,952.87
2016-07-02T12:16:10.396Z,952.91
2016-07-02T12:17:10.408Z,952.94
2016-07-02T12:18:10.505Z,952.93
2016-07-02T12:19:10.390Z,952.96
2016-07-02T12:20:10.392Z,952.96
2016-07-02T12:21:10.499Z,952.91
2016-07-02T12:22:10.417Z,952.85
2016-07-02T12:23:10.513Z,952.86
2016-07-02T12:24:10.516Z,952.86
2016-07-02T12:25:10.507Z,952.87
2016-07-02T12:26:10.533Z,952.87
2016-07-02T12:27:10.400Z,952.86
2016-07-02T12:28:10.398Z,952.92
2016-07-02T12:29:10.398Z,952.96
2016-07-02T12:30:10.487Z,952.98
2016-07-02T12:31:10.505Z,953.02